Time;durP1;ratioP1;P1;durP2;ratioP2;P2;SDS_P1;SDS_P2;PMS_P1;PMS_P2;Temp;Humidity;BMP_temperature;BMP_pressure;BME280_temperature;BME280_humidity;BME280_pressure;Samples;Min_cycle;Max_cycle;Signal;HPM_P1;HPM_P2
2022/09/13 00:02:18;;;;;;;;;;;;;;;19.78;36.94;100674.75;5030485;28;20331;-73
2022/09/13 00:04:46;;;;;;;;;;;;;;;19.75;36.94;100666.81;5026686;28;19964;-73
2022/09/13 00:07:14;;;;;;;;;;;;;;;19.73;37.08;100668.91;5027660;28;19921;-73
2022/09/13 00:09:43;;;;;;;;;;;;;;;19.71;37.08;100656.31;5024498;28;19995;-73
2022/09/13 00:12:11;;;;;;;;;;;;;;;19.67;37.00;100646.66;5028343;28;19927;-73
2022/09/13 00:14:38;;;;;;;;;;;;;;;19.64;36.83;100639.56;5027229;28;19928;-72
2022/09/13 00:17:06;;;;;;;;;;;;;;;19.58;37.00;100632.91;5026269;28;19932;-73
2022/09/13 00:19:34;;;;;;;;;;;;;;;19.55;37.12;100630.50;5031798;28;19982;-73
2022/09/13 00:22:02;;;;;;;;;;;;;;;19.53;36.90;100629.03;5031128;28;19921;-73
2022/09/13 00:24:30;;;;;;;;;;;;;;;19.48;37.28;100624.03;5032412;28;19924;-73
2022/09/13 00:26:59;;;;;;;;;;;;;;;19.45;37.36;100620.81;5028649;28;20291;-73
2022/09/13 00:29:27;;;;;;;;;;;;;;;19.41;37.46;100619.50;5030970;28;19924;-73
2022/09/13 00:31:54;;;;;;;;;;;;;;;19.38;37.33;100620.72;5033507;28;19932;-73
2022/09/13 00:34:22;;;;;;;;;;;;;;;19.36;37.09;100620.09;5045718;28;20267;-73
2022/09/13 00:36:50;;;;;;;;;;;;;;;19.33;37.13;100619.63;5033861;28;19925;-73
2022/09/13 00:39:18;;;;;;;;;;;;;;;19.32;37.72;100626.22;5031909;28;19928;-73
2022/09/13 00:41:45;;;;;;;;;;;;;;;19.31;37.51;100635.59;5031112;28;19925;-73
2022/09/13 00:44:43;;;;;;;;;;;;;;;19.30;37.80;100623.63;5029725;28;19927;-73
2022/09/13 00:47:13;;;;;;;;;;;;;;;19.30;37.87;100626.41;4990705;28;19921;-74
2022/09/13 00:49:42;;;;;;;;;;;;;;;19.31;37.66;100630.06;5018965;28;19974;-73
2022/09/13 00:52:12;;;;;;;;;;;;;;;19.31;37.66;100628.13;5030543;28;20379;-74
2022/09/13 00:54:42;;;;;;;;;;;;;;;19.32;37.44;100629.84;5028615;28;20279;-73
2022/09/13 00:57:10;;;;;;;;;;;;;;;19.33;37.94;100625.16;5033220;28;19925;-73
2022/09/13 00:59:40;;;;;;;;;;;;;;;19.33;37.58;100626.03;5028962;28;19921;-73
2022/09/13 01:02:09;;;;;;;;;;;;;;;19.36;37.95;100624.78;5029207;28;19925;-73
2022/09/13 01:04:38;;;;;;;;;;;;;;;19.36;37.92;100622.88;5029866;28;19931;-73
2022/09/13 01:07:08;;;;;;;;;;;;;;;19.36;37.92;100620.09;5029478;28;19933;-74
2022/09/13 01:09:38;;;;;;;;;;;;;;;19.37;37.74;100621.81;5032870;28;19963;-73
2022/09/13 01:12:11;;;;;;;;;;;;;;;19.37;37.75;100619.03;5029322;28;19924;-73
2022/09/13 01:14:39;;;;;;;;;;;;;;;19.37;37.57;100630.16;5023013;28;19925;-73
2022/09/13 01:17:08;;;;;;;;;;;;;;;19.38;38.11;100628.22;5028229;28;19921;-74
2022/09/13 01:19:36;;;;;;;;;;;;;;;19.38;37.74;100628.22;5028184;28;19987;-73
2022/09/13 01:22:21;;;;;;;;;;;;;;;19.38;37.63;100629.06;5028431;28;20004;-73
2022/09/13 01:25:07;;;;;;;;;;;;;;;19.39;37.68;100629.91;5022810;28;19971;-73
2022/09/13 01:27:41;;;;;;;;;;;;;;;19.38;37.63;100626.28;5026688;28;19928;-73
2022/09/13 01:30:16;;;;;;;;;;;;;;;19.40;37.50;100626.09;5031112;28;19971;-74
2022/09/13 01:33:00;;;;;;;;;;;;;;;19.39;37.61;100622.47;5021406;28;20397;-73
2022/09/13 01:35:34;;;;;;;;;;;;;;;19.39;38.08;100611.34;5026351;28;19921;-73
2022/09/13 01:38:06;;;;;;;;;;;;;;;19.39;37.53;100610.50;5029433;28;20344;-73
2022/09/13 01:40:44;;;;;;;;;;;;;;;19.37;37.90;100610.72;5029074;28;20426;-73
2022/09/13 01:43:18;;;;;;;;;;;;;;;19.35;37.66;100612.81;5021194;28;19941;-73
2022/09/13 01:45:50;;;;;;;;;;;;;;;19.33;37.88;100598.28;4984234;28;1146579;-74
2022/09/13 01:48:21;;;;;;;;;;;;;;;19.33;37.95;100601.06;5033902;28;19956;-74
2022/09/13 01:50:53;;;;;;;;;;;;;;;19.32;37.79;100606.78;5029099;28;19921;-73
2022/09/13 01:53:26;;;;;;;;;;;;;;;19.30;37.87;100607.00;5025899;28;20404;-73
2022/09/13 01:55:59;;;;;;;;;;;;;;;19.27;37.97;100599.94;5027852;28;19932;-73
2022/09/13 01:58:28;;;;;;;;;;;;;;;19.27;37.67;100599.09;5028809;28;19956;-74
2022/09/13 02:01:04;;;;;;;;;;;;;;;19.25;37.81;100592.88;5028468;28;19983;-73
2022/09/13 02:03:35;;;;;;;;;;;;;;;19.23;37.71;100587.50;5027629;28;19928;-73
2022/09/13 02:06:06;;;;;;;;;;;;;;;19.21;38.08;100597.94;5027224;28;19925;-73
2022/09/13 02:08:38;;;;;;;;;;;;;;;19.21;37.82;100592.38;5027476;28;20024;-73
2022/09/13 02:11:08;;;;;;;;;;;;;;;19.20;37.97;100595.34;5025180;28;20024;-73
2022/09/13 02:13:39;;;;;;;;;;;;;;;19.19;37.89;100590.84;5027528;28;19944;-74
2022/09/13 02:16:10;;;;;;;;;;;;;;;19.18;37.95;100601.09;5026815;28;20418;-73
2022/09/13 02:18:40;;;;;;;;;;;;;;;19.18;38.00;100595.53;5027018;28;20359;-74
2022/09/13 02:21:10;;;;;;;;;;;;;;;19.17;37.90;100596.59;5027501;28;19928;-73
2022/09/13 02:23:40;;;;;;;;;;;;;;;19.15;38.12;100593.16;5031400;28;20024;-73
2022/09/13 02:26:09;;;;;;;;;;;;;;;19.14;38.06;100596.13;5028972;28;20273;-73
2022/09/13 02:28:40;;;;;;;;;;;;;;;19.13;38.08;100598.03;5026902;28;19921;-73
2022/09/13 02:31:11;;;;;;;;;;;;;;;19.13;38.45;100597.19;5028117;28;19979;-74
2022/09/13 02:33:42;;;;;;;;;;;;;;;19.11;38.04;100588.22;5024793;28;19964;-73
2022/09/13 02:36:13;;;;;;;;;;;;;;;19.10;38.61;100584.56;5031109;28;20413;-73
2022/09/13 02:38:44;;;;;;;;;;;;;;;19.08;38.53;100586.66;5031623;28;20370;-73
2022/09/13 02:41:16;;;;;;;;;;;;;;;19.08;38.33;100591.34;5028613;28;19921;-74
2022/09/13 02:43:46;;;;;;;;;;;;;;;19.07;38.25;100584.09;5028522;28;19927;-73
2022/09/13 02:46:26;;;;;;;;;;;;;;;19.06;38.34;100579.59;5026555;28;19921;-74
2022/09/13 02:48:58;;;;;;;;;;;;;;;19.03;38.68;100593.88;5030320;28;19995;-73
2022/09/13 02:51:32;;;;;;;;;;;;;;;19.02;38.71;100587.47;5028837;28;19921;-73
2022/09/13 02:54:04;;;;;;;;;;;;;;;19.01;38.66;100585.75;5033700;28;19924;-73
2022/09/13 02:56:37;;;;;;;;;;;;;;;18.99;38.78;100592.53;5025319;28;19924;-74
2022/09/13 02:59:09;;;;;;;;;;;;;;;18.98;38.71;100597.22;5027623;28;19971;-74
2022/09/13 03:01:39;;;;;;;;;;;;;;;18.97;38.60;100592.72;5027855;28;19925;-73
2022/09/13 03:04:07;;;;;;;;;;;;;;;18.97;38.95;100602.97;5031536;28;19929;-74
2022/09/13 03:06:35;;;;;;;;;;;;;;;18.96;38.71;100612.34;5027206;28;20130;-73
2022/09/13 03:09:04;;;;;;;;;;;;;;;18.96;38.54;100606.81;5030641;28;20027;-73
2022/09/13 03:11:40;;;;;;;;;;;;;;;18.95;38.90;100607.88;5029901;28;19925;-73
2022/09/13 03:14:16;;;;;;;;;;;;;;;18.94;39.39;100617.22;5032217;28;19920;-74
2022/09/13 03:16:54;;;;;;;;;;;;;;;18.94;38.78;100620.00;5027336;28;19956;-74
2022/09/13 03:19:27;;;;;;;;;;;;;;;18.92;39.29;100614.66;5028505;28;20047;-73
2022/09/13 03:22:02;;;;;;;;;;;;;;;18.93;39.33;100615.50;5025951;28;19974;-73
2022/09/13 03:24:38;;;;;;;;;;;;;;;18.92;39.26;100609.09;5029047;28;19947;-73
2022/09/13 03:27:09;;;;;;;;;;;;;;;18.90;39.15;100600.97;5029601;28;19921;-74
2022/09/13 03:29:40;;;;;;;;;;;;;;;18.91;39.28;100601.84;5028562;28;20337;-73
2022/09/13 03:32:17;;;;;;;;;;;;;;;18.90;39.25;100597.34;5026980;28;19928;-74
2022/09/13 03:34:48;;;;;;;;;;;;;;;18.88;39.52;100605.84;5027693;28;19963;-73
2022/09/13 03:37:21;;;;;;;;;;;;;;;18.87;39.90;100589.44;5027236;28;19921;-74
2022/09/13 03:39:51;;;;;;;;;;;;;;;18.87;39.78;100586.66;5034161;28;20289;-73
2022/09/13 03:42:23;;;;;;;;;;;;;;;18.85;39.81;100581.31;5032043;28;19925;-72
2022/09/13 03:44:53;;;;;;;;;;;;;;;18.84;39.54;100574.03;5040490;28;19997;-74
2022/09/13 03:47:23;;;;;;;;;;;;;;;18.83;39.51;100577.84;5030681;28;19935;-73
2022/09/13 03:49:52;;;;;;;;;;;;;;;18.82;39.89;100584.44;5032331;28;20015;-73
2022/09/13 03:52:20;;;;;;;;;;;;;;;18.80;39.90;100572.69;5030577;28;19927;-73
2022/09/13 03:54:47;;;;;;;;;;;;;;;18.79;39.87;100576.53;5033002;28;20379;-73
2022/09/13 03:57:16;;;;;;;;;;;;;;;18.78;39.82;100571.19;5033909;28;20298;-74
2022/09/13 03:59:45;;;;;;;;;;;;;;;18.76;40.01;100567.75;5033189;28;19921;-73
2022/09/13 04:02:13;;;;;;;;;;;;;;;18.74;40.33;100567.06;5029923;28;19928;-74
2022/09/13 04:04:43;;;;;;;;;;;;;;;18.71;40.15;100573.88;5027947;28;19936;-73
2022/09/13 04:07:12;;;;;;;;;;;;;;;18.68;40.86;100567.84;5036069;28;19928;-74
2022/09/13 04:09:39;;;;;;;;;;;;;;;18.66;40.48;100568.03;5031185;28;20150;-73
2022/09/13 04:12:08;;;;;;;;;;;;;;;18.64;40.74;100563.75;5035353;28;19943;-73
2022/09/13 04:14:36;;;;;;;;;;;;;;;18.62;40.20;100569.50;5029993;28;19921;-73
2022/09/13 04:17:04;;;;;;;;;;;;;;;18.60;40.21;100565.19;5032790;28;19943;-74
2022/09/13 04:19:32;;;;;;;;;;;;;;;18.58;40.20;100573.69;5031248;28;20004;-73
2022/09/13 04:22:01;;;;;;;;;;;;;;;18.58;40.24;100570.94;5032723;28;19929;-73
2022/09/13 04:24:29;;;;;;;;;;;;;;;18.57;40.88;100574.75;5027214;28;19921;-73
2022/09/13 04:26:57;;;;;;;;;;;;;;;18.56;40.80;100572.16;5030419;28;19929;-74
2022/09/13 04:29:26;;;;;;;;;;;;;;;18.56;40.80;100574.94;5034273;28;19929;-73
2022/09/13 04:31:54;;;;;;;;;;;;;;;18.57;40.28;100576.66;5037578;28;19927;-74
2022/09/13 04:34:22;;;;;;;;;;;;;;;18.57;40.60;100573.88;5037281;28;19924;-73
2022/09/13 04:36:51;;;;;;;;;;;;;;;18.56;40.62;100575.81;5030881;28;20268;-72
2022/09/13 04:39:22;;;;;;;;;;;;;;;18.56;40.85;100578.56;5027528;28;20060;-72
2022/09/13 04:41:50;;;;;;;;;;;;;;;18.56;41.13;100581.34;5031002;28;19931;-73
2022/09/13 04:44:19;;;;;;;;;;;;;;;18.56;41.23;100581.34;5023216;28;19927;-73
2022/09/13 04:46:48;;;;;;;;;;;;;;;18.57;41.17;100582.19;5029388;28;19983;-73
2022/09/13 04:49:16;;;;;;;;;;;;;;;18.56;40.90;100586.88;5021739;28;20371;-73
2022/09/13 04:51:44;;;;;;;;;;;;;;;18.56;41.37;100581.34;5026517;28;20430;-73
2022/09/13 04:54:12;;;;;;;;;;;;;;;18.56;41.35;100597.97;5031770;28;20286;-73
2022/09/13 04:56:44;;;;;;;;;;;;;;;18.57;40.98;100593.28;5029458;28;19924;-73
2022/09/13 04:59:12;;;;;;;;;;;;;;;18.58;40.94;100600.56;5027389;28;19921;-73
2022/09/13 05:01:40;;;;;;;;;;;;;;;18.57;41.56;100594.16;5030892;28;20124;-73
2022/09/13 05:04:09;;;;;;;;;;;;;;;18.58;41.15;100593.09;5026492;28;20054;-73
2022/09/13 05:06:37;;;;;;;;;;;;;;;18.59;41.26;100588.41;5033681;28;19920;-73
2022/09/13 05:09:05;;;;;;;;;;;;;;;18.59;41.50;100580.97;5028107;28;19971;-74
2022/09/13 05:11:33;;;;;;;;;;;;;;;18.60;41.44;100590.16;5032245;28;19921;-72
2022/09/13 05:14:02;;;;;;;;;;;;;;;18.59;41.20;100591.19;5025719;28;19925;-73
2022/09/13 05:16:31;;;;;;;;;;;;;;;18.59;41.77;100600.38;5027868;28;19925;-73
2022/09/13 05:18:59;;;;;;;;;;;;;;;18.57;41.76;100590.53;5035397;28;19921;-73
2022/09/13 05:21:27;;;;;;;;;;;;;;;18.57;41.63;100596.06;5031300;28;20354;-74
2022/09/13 05:23:56;;;;;;;;;;;;;;;18.56;41.41;100589.66;5020594;28;19920;-73
2022/09/13 05:26:25;;;;;;;;;;;;;;;18.55;41.81;100599.06;5027575;28;19921;-73
2022/09/13 05:28:53;;;;;;;;;;;;;;;18.55;41.85;100604.59;5024291;28;20387;-73
2022/09/13 05:31:24;;;;;;;;;;;;;;;18.55;41.24;100596.28;5030205;28;20122;-73
2022/09/13 05:33:53;;;;;;;;;;;;;;;18.55;41.47;100599.06;5030954;28;19929;-72
2022/09/13 05:36:21;;;;;;;;;;;;;;;18.56;41.87;100592.44;5030149;28;19935;-73
2022/09/13 05:38:49;;;;;;;;;;;;;;;18.55;41.75;100599.06;5030412;28;20212;-72
2022/09/13 05:41:36;;;;;;;;;;;;;;;18.55;41.32;100590.75;5028713;28;19936;-72
2022/09/13 05:44:04;;;;;;;;;;;;;;;18.55;41.62;100596.28;5028391;28;19920;-73
2022/09/13 05:46:41;;;;;;;;;;;;;;;18.56;41.74;100597.13;5026315;28;19921;-73
2022/09/13 05:49:09;;;;;;;;;;;;;;;18.55;41.90;100600.97;5028619;28;19925;-73
2022/09/13 05:51:37;;;;;;;;;;;;;;;18.56;42.08;100600.75;5045114;28;19921;-73
2022/09/13 05:54:04;;;;;;;;;;;;;;;18.55;42.11;100596.28;5028264;28;19921;-73
2022/09/13 05:56:32;;;;;;;;;;;;;;;18.55;41.85;100599.06;5045882;28;19925;-73
2022/09/13 05:59:00;;;;;;;;;;;;;;;18.54;41.69;100600.09;5025991;28;20019;-74
2022/09/13 06:01:28;;;;;;;;;;;;;;;18.54;42.18;100604.78;5027367;28;20004;-73
2022/09/13 06:03:58;;;;;;;;;;;;;;;18.53;41.69;100595.59;5022930;28;19947;-74
2022/09/13 06:06:27;;;;;;;;;;;;;;;18.52;42.10;100591.97;5029248;28;19921;-73
2022/09/13 06:08:55;;;;;;;;;;;;;;;18.53;41.63;100595.59;5028807;28;19927;-74
2022/09/13 06:11:23;;;;;;;;;;;;;;;18.53;42.27;100601.16;5023363;28;19925;-73
2022/09/13 06:13:52;;;;;;;;;;;;;;;18.52;41.72;100605.84;5028121;28;19921;-72
2022/09/13 06:16:19;;;;;;;;;;;;;;;18.52;42.04;100603.06;5034839;28;19921;-73
2022/09/13 06:18:48;;;;;;;;;;;;;;;18.55;42.10;100606.50;5029187;28;19920;-72
2022/09/13 06:21:19;;;;;;;;;;;;;;;18.56;42.33;100605.44;5030167;28;19924;-72
2022/09/13 06:23:47;;;;;;;;;;;;;;;18.56;41.95;100608.19;5018951;28;20011;-74
2022/09/13 06:26:16;;;;;;;;;;;;;;;18.56;42.25;100610.97;5029376;28;20520;-74
2022/09/13 06:28:47;;;;;;;;;;;;;;;18.56;42.14;100610.97;5030009;28;19921;-74
2022/09/13 06:31:15;;;;;;;;;;;;;;;18.56;42.06;100610.97;5034654;28;19956;-74
2022/09/13 06:33:44;;;;;;;;;;;;;;;18.57;41.99;100613.56;5029452;28;19966;-74
2022/09/13 06:36:16;;;;;;;;;;;;;;;18.58;42.05;100608.88;5028832;28;19925;-74
2022/09/13 06:38:47;;;;;;;;;;;;;;;18.57;42.12;100608.00;5025217;28;19986;-74
2022/09/13 06:41:17;;;;;;;;;;;;;;;18.58;41.82;100606.09;5027686;28;19921;-74
2022/09/13 06:43:45;;;;;;;;;;;;;;;18.57;42.11;100613.56;5030676;28;19975;-72
2022/09/13 06:46:13;;;;;;;;;;;;;;;18.58;42.41;100612.50;5041406;23;20335;-73
2022/09/13 06:48:42;;;;;;;;;;;;;;;18.59;42.36;100603.13;5053273;28;20018;-73
2022/09/13 06:51:10;;;;;;;;;;;;;;;18.60;42.61;100598.47;5056981;28;20566;-73
2022/09/13 06:53:38;;;;;;;;;;;;;;;18.60;42.24;100591.00;5054812;28;19935;-74
2022/09/13 06:56:09;;;;;;;;;;;;;;;18.61;42.49;100597.41;5063661;28;19927;-70
2022/09/13 06:58:38;;;;;;;;;;;;;;;18.61;42.33;100598.28;5072549;28;20323;-71
2022/09/13 07:01:11;;;;;;;;;;;;;;;18.63;42.06;100592.53;5058233;28;19920;-71
2022/09/13 07:03:41;;;;;;;;;;;;;;;18.64;42.58;100594.22;5049991;28;19951;-72
2022/09/13 07:06:10;;;;;;;;;;;;;;;18.64;42.13;100597.88;5077862;28;19989;-72
2022/09/13 07:08:40;;;;;;;;;;;;;;;18.65;42.38;100591.28;5056240;28;20289;-72
2022/09/13 07:11:09;;;;;;;;;;;;;;;18.67;42.56;100597.50;5065568;28;20449;-72
2022/09/13 07:13:37;;;;;;;;;;;;;;;18.67;42.15;100594.72;5056095;28;19920;-73
2022/09/13 07:16:06;;;;;;;;;;;;;;;18.69;42.11;100591.75;5067256;28;19924;-73
2022/09/13 07:18:34;;;;;;;;;;;;;;;18.70;42.14;100588.78;5066809;28;20011;-73
2022/09/13 07:21:03;;;;;;;;;;;;;;;18.72;42.27;100592.22;5067226;28;19921;-72
2022/09/13 07:23:31;;;;;;;;;;;;;;;18.72;42.35;100597.75;5066880;28;19931;-71
2022/09/13 07:26:03;;;;;;;;;;;;;;;18.75;42.28;100596.53;5066845;28;19986;-73
2022/09/13 07:28:33;;;;;;;;;;;;;;;18.73;42.73;100596.69;5066905;28;19931;-73
2022/09/13 07:31:05;;;;;;;;;;;;;;;18.76;42.22;100598.25;5067634;28;20326;-73
2022/09/13 07:33:33;;;;;;;;;;;;;;;18.77;42.40;100608.28;5066701;28;19927;-74
2022/09/13 07:36:05;;;;;;;;;;;;;;;18.77;42.38;100606.38;5067942;28;19920;-73
2022/09/13 07:38:33;;;;;;;;;;;;;;;18.79;42.58;100615.38;5067616;28;20308;-74
2022/09/13 07:41:01;;;;;;;;;;;;;;;18.82;42.32;100608.53;5067909;28;20430;-74
2022/09/13 07:43:29;;;;;;;;;;;;;;;18.84;42.25;100606.44;5067252;28;19921;-74
2022/09/13 07:45:58;;;;;;;;;;;;;;;18.85;42.46;100609.03;5067608;28;19925;-73
2022/09/13 07:48:26;;;;;;;;;;;;;;;18.88;42.72;100610.56;5067866;28;20569;-74
2022/09/13 07:51:01;;;;;;;;;;;;;;;18.90;42.40;100623.16;5067254;28;19924;-73
2022/09/13 07:53:29;;;;;;;;;;;;;;;18.94;42.70;100622.78;5067712;28;19920;-73
2022/09/13 07:56:00;;;;;;;;;;;;;;;18.97;42.89;100622.38;5068735;28;19920;-74
2022/09/13 07:58:27;;;;;;;;;;;;;;;18.99;42.49;100626.69;5066432;28;19920;-74
2022/09/13 08:00:56;;;;;;;;;;;;;;;19.04;42.49;100629.75;5068487;28;19920;-74
2022/09/13 08:03:25;;;;;;;;;;;;;;;19.09;42.77;100634.69;5057019;28;20111;-72
2022/09/13 08:05:53;;;;;;;;;;;;;;;19.12;42.55;100634.31;5066160;28;19971;-73
2022/09/13 08:08:21;;;;;;;;;;;;;;;19.16;42.46;100630.94;5067170;28;20292;-72
2022/09/13 08:10:48;;;;;;;;;;;;;;;19.20;42.86;100625.88;5068238;28;19965;-74
2022/09/13 08:13:16;;;;;;;;;;;;;;;19.23;42.94;100629.13;5067822;28;19920;-74
2022/09/13 08:15:44;;;;;;;;;;;;;;;19.28;42.45;100625.78;5068236;28;19970;-73
2022/09/13 08:18:11;;;;;;;;;;;;;;;19.32;42.91;100627.09;5066540;28;19920;-72
2022/09/13 08:20:40;;;;;;;;;;;;;;;19.37;42.80;100630.16;5067682;28;19982;-72
2022/09/13 08:23:09;;;;;;;;;;;;;;;19.41;42.62;100623.13;5067442;28;20340;-74
2022/09/13 08:25:37;;;;;;;;;;;;;;;19.48;42.98;100620.41;5068296;28;20446;-74
2022/09/13 08:28:05;;;;;;;;;;;;;;;19.53;42.70;100616.00;5067110;28;19996;-73
2022/09/13 08:30:34;;;;;;;;;;;;;;;19.60;42.74;100624.38;5068173;28;19924;-73
2022/09/13 08:33:02;;;;;;;;;;;;;;;19.69;42.75;100630.66;5068486;28;19920;-73
2022/09/13 08:35:30;;;;;;;;;;;;;;;19.77;42.93;100624.97;5066713;28;19986;-72
2022/09/13 08:38:00;;;;;;;;;;;;;;;19.85;42.93;100625.69;5066190;28;19921;-73
2022/09/13 08:40:28;;;;;;;;;;;;;;;19.94;42.91;100620.88;5068047;28;19991;-73
2022/09/13 08:43:02;;;;;;;;;;;;;;;20.05;42.94;100619.44;5067521;28;20659;-74
2022/09/13 08:45:30;;;;;;;;;;;;;;;20.17;43.13;100628.94;5070543;28;20337;-74
2022/09/13 08:48:01;;;;;;;;;;;;;;;20.26;42.64;100625.81;5070876;28;19924;-72
2022/09/13 08:50:31;;;;;;;;;;;;;;;20.39;43.07;100625.88;5071994;28;19920;-73
2022/09/13 08:53:07;;;;;;;;;;;;;;;20.53;42.52;100623.19;5070511;28;20400;-72
2022/09/13 08:55:40;;;;;;;;;;;;;;;20.67;42.69;100625.00;5071697;28;19920;-72
2022/09/13 08:58:19;;;;;;;;;;;;;;;20.80;42.77;100616.72;5070368;28;19920;-72
2022/09/13 09:00:50;;;;;;;;;;;;;;;20.95;42.38;100620.19;5071227;28;19920;-72
2022/09/13 09:03:24;;;;;;;;;;;;;;;21.09;42.14;100621.13;5070623;28;19920;-72
2022/09/13 09:05:53;;;;;;;;;;;;;;;21.21;42.09;100622.22;5071679;28;19924;-72
2022/09/13 09:08:30;;;;;;;;;;;;;;;21.35;42.15;100614.81;5070701;28;19920;-72
2022/09/13 09:10:59;;;;;;;;;;;;;;;21.48;41.88;100614.81;5071672;28;19920;-72
2022/09/13 09:13:29;;;;;;;;;;;;;;;21.59;41.88;100604.97;5070497;28;19978;-72
2022/09/13 09:15:58;;;;;;;;;;;;;;;21.72;41.85;100607.75;5071134;28;20385;-71
2022/09/13 09:18:29;;;;;;;;;;;;;;;21.84;41.68;100614.44;5070038;28;19924;-72
2022/09/13 09:20:58;;;;;;;;;;;;;;;21.98;41.98;100620.88;5071563;28;19924;-72
2022/09/13 09:23:29;;;;;;;;;;;;;;;22.10;41.61;100613.56;5070453;28;20035;-72
2022/09/13 09:26:00;;;;;;;;;;;;;;;22.21;40.63;100619.34;5071530;28;20384;-72
2022/09/13 09:28:30;;;;;;;;;;;;;;;22.33;40.80;100613.97;5070415;28;19920;-72
2022/09/13 09:31:00;;;;;;;;;;;;;;;22.44;40.97;100612.44;5071049;28;19920;-72
2022/09/13 09:33:38;;;;;;;;;;;;;;;22.52;40.76;100612.19;5069689;28;19970;-72
2022/09/13 09:36:12;;;;;;;;;;;;;;;22.62;40.69;100609.84;5070477;28;19920;-72
2022/09/13 09:38:42;;;;;;;;;;;;;;;22.70;41.00;100614.31;5069851;28;19963;-72
2022/09/13 09:41:13;;;;;;;;;;;;;;;22.78;40.64;100612.16;5070878;28;19920;-72
2022/09/13 09:43:44;;;;;;;;;;;;;;;22.86;40.71;100611.03;5069946;28;20308;-72
2022/09/13 09:46:14;;;;;;;;;;;;;;;22.95;40.43;100623.66;5070325;28;20331;-72
2022/09/13 09:48:45;;;;;;;;;;;;;;;23.04;40.62;100605.59;5069396;28;20007;-73
2022/09/13 09:51:15;;;;;;;;;;;;;;;23.12;40.47;100610.91;5070301;28;19930;-72
2022/09/13 09:53:46;;;;;;;;;;;;;;;23.22;40.47;100604.88;5069190;28;20431;-72
2022/09/13 09:56:21;;;;;;;;;;;;;;;23.31;40.35;100598.81;5069786;28;19924;-72
2022/09/13 09:58:49;;;;;;;;;;;;;;;23.41;40.18;100608.63;5071047;28;19955;-72
2022/09/13 10:01:20;;;;;;;;;;;;;;;23.50;40.33;100596.94;5070421;28;20365;-72
2022/09/13 10:03:53;;;;;;;;;;;;;;;23.60;40.05;100605.69;5068326;28;20381;-73
2022/09/13 10:06:22;;;;;;;;;;;;;;;23.69;40.04;100603.47;5070221;28;20031;-72
2022/09/13 10:08:58;;;;;;;;;;;;;;;23.76;39.97;100605.16;5068839;28;19966;-73
2022/09/13 10:11:38;;;;;;;;;;;;;;;23.86;39.76;100601.88;5070398;28;20383;-73
2022/09/13 10:14:06;;;;;;;;;;;;;;;23.96;39.34;100598.56;5070052;28;20674;-72
2022/09/13 10:16:34;;;;;;;;;;;;;;;24.04;39.40;100601.91;5069438;28;20014;-73
2022/09/13 10:19:23;;;;;;;;;;;;;;;24.13;39.41;100606.13;5069771;28;19927;-72
2022/09/13 10:22:01;;;;;;;;;;;;;;;24.23;39.07;100591.63;5070484;28;20015;-73
2022/09/13 10:24:30;;;;;;;;;;;;;;;24.33;39.26;100589.13;5068966;28;20008;-72
2022/09/13 10:26:58;;;;;;;;;;;;;;;24.42;39.21;100592.53;5069424;28;19965;-72
2022/09/13 10:29:27;;;;;;;;;;;;;;;24.50;39.08;100589.41;5068959;28;19921;-72
2022/09/13 10:31:56;;;;;;;;;;;;;;;24.61;39.32;100591.44;5070030;28;19989;-73
2022/09/13 10:34:27;;;;;;;;;;;;;;;24.70;38.78;100590.03;5068881;28;19934;-72
2022/09/13 10:36:57;;;;;;;;;;;;;;;24.79;38.93;100587.78;5069679;28;19956;-72
2022/09/13 10:39:25;;;;;;;;;;;;;;;24.90;38.59;100585.03;5068854;28;19924;-73
2022/09/13 10:41:55;;;;;;;;;;;;;;;24.99;38.67;100587.53;5069743;28;19966;-73
2022/09/13 10:44:26;;;;;;;;;;;;;;;25.07;38.36;100588.06;5069179;28;20313;-73
2022/09/13 10:46:54;;;;;;;;;;;;;;;25.16;38.41;100589.44;5070081;28;19973;-73
2022/09/13 10:49:45;;;;;;;;;;;;;;;25.26;38.34;100591.69;5068327;28;19924;-73
2022/09/13 10:52:26;;;;;;;;;;;;;;;25.35;38.08;100583.81;5068389;28;20118;-73
2022/09/13 10:54:54;;;;;;;;;;;;;;;25.43;38.12;100581.50;5056892;28;19927;-75
2022/09/13 10:57:31;;;;;;;;;;;;;;;25.51;38.29;100580.34;5065206;28;20285;-73
2022/09/13 10:59:59;;;;;;;;;;;;;;;25.59;37.69;100582.81;5061918;28;20385;-73
2022/09/13 11:02:41;;;;;;;;;;;;;;;25.66;37.47;100579.88;5067637;28;20304;-73
2022/09/13 11:05:21;;;;;;;;;;;;;;;25.71;36.91;100575.28;5063940;28;19924;-73
2022/09/13 11:08:06;;;;;;;;;;;;;;;25.76;37.13;100585.75;5059138;28;20382;-73
2022/09/13 11:10:40;;;;;;;;;;;;;;;25.79;37.13;100574.94;5063377;28;19994;-73
2022/09/13 11:13:16;;;;;;;;;;;;;;;25.83;36.93;100578.09;5067417;28;20015;-74
2022/09/13 11:15:49;;;;;;;;;;;;;;;25.85;36.82;100573.09;5067889;28;20098;-74
2022/09/13 11:18:28;;;;;;;;;;;;;;;25.86;36.53;100577.63;5065909;28;19970;-74
2022/09/13 11:21:02;;;;;;;;;;;;;;;25.86;36.67;100577.63;5068226;28;19963;-72
2022/09/13 11:23:45;;;;;;;;;;;;;;;25.87;36.46;100582.13;5067893;28;20381;-72
2022/09/13 11:26:24;;;;;;;;;;;;;;;25.88;36.26;100569.81;5064384;28;19920;-73
2022/09/13 11:28:57;;;;;;;;;;;;;;;25.88;36.44;100572.63;5066306;28;19924;-72
2022/09/13 11:31:32;;;;;;;;;;;;;;;25.87;36.29;100563.38;5067480;28;19932;-73
2022/09/13 11:34:07;;;;;;;;;;;;;;;25.88;36.43;100564.22;5066824;28;19967;-73
2022/09/13 11:36:42;;;;;;;;;;;;;;;25.89;36.26;100557.47;5067073;28;19927;-72
2022/09/13 11:39:17;;;;;;;;;;;;;;;25.90;36.31;100556.41;5066988;28;20250;-73
2022/09/13 11:41:52;;;;;;;;;;;;;;;25.91;36.27;100553.34;5065801;28;19927;-72
2022/09/13 11:44:31;;;;;;;;;;;;;;;25.92;36.03;100546.66;5066314;28;20265;-73
2022/09/13 11:47:04;;;;;;;;;;;;;;;25.95;36.15;100540.56;5064727;28;19974;-72
2022/09/13 11:49:47;;;;;;;;;;;;;;;25.97;36.14;100540.31;5063033;28;19927;-73
2022/09/13 11:52:22;;;;;;;;;;;;;;;25.97;35.88;100535.53;5064813;28;19924;-72
2022/09/13 11:54:59;;;;;;;;;;;;;;;25.99;35.67;100536.16;5065877;28;20353;-72
2022/09/13 11:57:29;;;;;;;;;;;;;;;26.01;35.81;100531.16;5058732;28;19921;-72
2022/09/13 12:00:00;;;;;;;;;;;;;;;26.02;35.53;100527.28;5061217;28;19920;-73
2022/09/13 12:02:32;;;;;;;;;;;;;;;26.04;35.78;100528.97;5066370;28;20015;-72
2022/09/13 12:05:02;;;;;;;;;;;;;;;26.05;35.47;100528.72;5067475;28;19927;-72
2022/09/13 12:07:52;;;;;;;;;;;;;;;26.06;35.49;100518.34;5066209;28;20409;-72
2022/09/13 12:10:24;;;;;;;;;;;;;;;26.08;35.39;100516.19;5066711;28;19920;-72
2022/09/13 12:12:52;;;;;;;;;;;;;;;26.08;35.75;100517.06;5066345;28;19927;-73
2022/09/13 12:15:25;;;;;;;;;;;;;;;26.09;35.69;100515.97;5065893;28;20341;-72
2022/09/13 12:17:56;;;;;;;;;;;;;;;26.10;35.38;100517.66;5066051;28;20412;-73
2022/09/13 12:20:29;;;;;;;;;;;;;;;26.12;35.53;100515.47;5069865;28;19942;-73
2022/09/13 12:23:00;;;;;;;;;;;;;;;26.16;35.38;100507.41;5070404;28;20079;-73
2022/09/13 12:25:33;;;;;;;;;;;;;;;26.19;34.84;100509.72;5070476;28;19928;-73
2022/09/13 12:28:05;;;;;;;;;;;;;;;26.20;35.02;100509.50;5055750;28;20011;-73
2022/09/13 12:30:39;;;;;;;;;;;;;;;26.21;35.00;100508.41;5069701;28;19978;-73
2022/09/13 12:33:07;;;;;;;;;;;;;;;26.24;34.89;100509.84;5070036;28;19921;-73
2022/09/13 12:35:37;;;;;;;;;;;;;;;26.26;34.95;100502.03;5070125;28;19993;-73
2022/09/13 12:38:21;;;;;;;;;;;;;;;26.25;33.35;100505.94;5069931;28;19925;-73
2022/09/13 12:41:03;;;;;;;;;;;;;;;26.27;34.49;100501.78;5069954;28;20430;-73
2022/09/13 12:43:43;;;;;;;;;;;;;;;26.28;34.60;100497.03;5056006;28;19920;-73
2022/09/13 12:46:23;;;;;;;;;;;;;;;26.30;34.81;100500.41;5057373;28;19920;-73
2022/09/13 12:49:04;;;;;;;;;;;;;;;26.31;34.65;100503.00;5069748;28;19927;-73
2022/09/13 12:51:40;;;;;;;;;;;;;;;26.34;34.75;100501.66;5070803;28;19927;-73
2022/09/13 12:54:27;;;;;;;;;;;;;;;26.36;34.62;100499.47;5065727;28;19935;-73
2022/09/13 12:57:03;;;;;;;;;;;;;;;26.39;34.49;100497.00;5069725;28;19955;-73